Terminal Aerodrome Forecast
Issued by NWS

Home | Current Version | Previous Version | Graphics & Text | Print | Product List | Glossary On
Versions: 1 2 3 4 5 6 7 8 9 10 11 12 13
647
FTUS43 KICT 030912 AAC
TAFRSL
TAF AMD
KRSL 030912Z 0309/0406 32017G25KT P6SM SCT025
      TEMPO 0309/0312 BKN025
     FM031400 32013KT P6SM SCT250
     FM032300 29009KT P6SM SCT250=

USA.gov is the U.S. government's official web portal to all federal, state and local government web resources and services.